Time;durP1;ratioP1;P1;durP2;ratioP2;P2;SDS_P1;SDS_P2;PMS_P1;PMS_P2;Temp;Humidity;BMP_temperature;BMP_pressure;BME280_temperature;BME280_humidity;BME280_pressure;Samples;Min_cycle;Max_cycle;Signal;HPM_P1;HPM_P2
2021/09/15 00:00:42;;;;;;;3.90;3.50;;;16.80;90.90;;;;;;4949260;28;20035;-67
2021/09/15 00:03:08;;;;;;;5.53;3.20;;;16.80;90.80;;;;;;4950125;28;20042;-67
2021/09/15 00:05:34;;;;;;;4.35;3.00;;;16.80;90.70;;;;;;4952794;28;20035;-67
2021/09/15 00:07:59;;;;;;;3.40;3.10;;;16.70;90.70;;;;;;4950108;28;20039;-67
2021/09/15 00:10:25;;;;;;;4.28;3.75;;;16.70;90.80;;;;;;4949736;28;20042;-68
2021/09/15 00:12:50;;;;;;;6.55;3.83;;;16.70;90.90;;;;;;4947810;28;20566;-67
2021/09/15 00:15:16;;;;;;;5.70;4.03;;;16.70;91.20;;;;;;4958923;28;20410;-67
2021/09/15 00:17:42;;;;;;;8.98;4.38;;;16.70;91.50;;;;;;4947513;28;20102;-67
2021/09/15 00:20:09;;;;;;;5.75;4.38;;;16.70;91.20;;;;;;4946639;28;20085;-67
2021/09/15 00:22:35;;;;;;;5.00;4.00;;;16.60;92.30;;;;;;4949013;28;20415;-68
2021/09/15 00:25:01;;;;;;;7.68;5.13;;;16.60;92.50;;;;;;4954198;28;20039;-68
2021/09/15 00:27:26;;;;;;;6.07;4.65;;;16.60;92.90;;;;;;4950212;28;20031;-67
2021/09/15 00:29:52;;;;;;;5.43;4.35;;;16.60;92.80;;;;;;4947010;28;20035;-67
2021/09/15 00:32:18;;;;;;;5.82;4.40;;;16.60;92.70;;;;;;4956082;28;20038;-68
2021/09/15 00:34:44;;;;;;;7.22;4.53;;;16.60;92.70;;;;;;4954174;28;20019;-68
2021/09/15 00:37:10;;;;;;;6.00;4.70;;;16.70;92.70;;;;;;4948134;28;20031;-68
2021/09/15 00:39:36;;;;;;;7.38;4.63;;;16.70;92.00;;;;;;4952821;28;20035;-68
2021/09/15 00:42:02;;;;;;;6.18;4.55;;;16.70;92.40;;;;;;4944093;28;20048;-67
2021/09/15 00:44:27;;;;;;;8.48;4.55;;;16.70;93.10;;;;;;4949955;28;20027;-68
2021/09/15 00:46:53;;;;;;;6.43;4.55;;;16.70;92.70;;;;;;4948980;28;20567;-68
2021/09/15 00:49:18;;;;;;;8.88;4.60;;;16.80;92.40;;;;;;4948468;28;20039;-68
2021/09/15 00:51:44;;;;;;;7.47;4.50;;;16.70;92.90;;;;;;4967682;28;20412;-68
2021/09/15 00:54:12;;;;;;;7.68;4.30;;;16.70;92.60;;;;;;4952858;28;20613;-68
2021/09/15 00:56:38;;;;;;;5.57;4.70;;;16.70;92.30;;;;;;4960510;28;20038;-71
2021/09/15 00:59:05;;;;;;;5.63;4.10;;;16.70;92.30;;;;;;4951746;28;20039;-68
2021/09/15 01:01:30;;;;;;;6.22;4.63;;;16.80;92.40;;;;;;4946808;28;20047;-68
2021/09/15 01:03:56;;;;;;;7.38;4.10;;;16.80;92.10;;;;;;4948347;28;20035;-68
2021/09/15 01:06:22;;;;;;;6.47;4.22;;;16.80;92.00;;;;;;4951966;28;20027;-68
2021/09/15 01:08:48;;;;;;;6.15;4.75;;;16.80;91.90;;;;;;4948877;28;20377;-68
2021/09/15 01:11:15;;;;;;;4.82;4.05;;;16.80;92.30;;;;;;4946678;28;20030;-68
2021/09/15 01:13:41;;;;;;;5.35;4.03;;;16.80;92.10;;;;;;4948715;28;20477;-68
2021/09/15 01:16:07;;;;;;;6.53;4.22;;;16.80;92.00;;;;;;4947373;28;20110;-67
2021/09/15 01:18:33;;;;;;;5.80;4.40;;;16.80;91.90;;;;;;4947905;28;20031;-68
2021/09/15 01:20:59;;;;;;;5.35;4.15;;;16.80;92.10;;;;;;4944362;28;20050;-68
2021/09/15 01:23:25;;;;;;;5.72;4.25;;;16.70;92.00;;;;;;4961799;28;20047;-68
2021/09/15 01:25:51;;;;;;;7.45;4.30;;;16.70;91.70;;;;;;4948310;28;20032;-68
2021/09/15 01:28:17;;;;;;;4.93;4.30;;;16.70;91.60;;;;;;4945443;28;20032;-68
2021/09/15 01:30:43;;;;;;;4.88;4.13;;;16.70;91.60;;;;;;4944474;28;20027;-68
2021/09/15 01:33:14;;;;;;;6.88;4.15;;;16.70;91.60;;;;;;4948033;28;20020;-68
2021/09/15 01:35:41;;;;;;;5.40;4.05;;;16.60;91.60;;;;;;4947590;28;20046;-68
2021/09/15 01:38:06;;;;;;;10.70;4.38;;;16.60;91.60;;;;;;4950006;28;20026;-67
2021/09/15 01:40:32;;;;;;;5.50;4.20;;;16.60;90.90;;;;;;4950216;28;20122;-68
2021/09/15 01:42:58;;;;;;;5.78;4.15;;;16.50;90.90;;;;;;4950815;28;20027;-67
2021/09/15 01:45:23;;;;;;;5.43;4.10;;;16.50;91.10;;;;;;4949284;28;20058;-68
2021/09/15 01:47:49;;;;;;;5.75;4.20;;;16.40;91.00;;;;;;4947717;28;20531;-68
2021/09/15 01:50:15;;;;;;;5.97;4.32;;;16.50;91.40;;;;;;4943817;28;20493;-67
2021/09/15 01:52:41;;;;;;;15.52;8.88;;;16.50;91.20;;;;;;4950054;28;20032;-67
2021/09/15 01:55:08;;;;;;;19.48;9.32;;;16.50;91.40;;;;;;4956070;28;20015;-67
2021/09/15 01:57:33;;;;;;;280.10;103.72;;;16.50;91.20;;;;;;4951144;28;20098;-68
2021/09/15 01:59:59;;;;;;;43.80;17.67;;;16.50;91.60;;;;;;4956708;28;20030;-68
2021/09/15 02:02:25;;;;;;;16.42;8.07;;;16.50;91.70;;;;;;4961529;28;20062;-67
2021/09/15 02:04:51;;;;;;;9.18;5.18;;;16.50;92.20;;;;;;4948707;28;20539;-67
2021/09/15 02:07:17;;;;;;;7.13;4.95;;;16.40;92.40;;;;;;4950515;28;20023;-67
2021/09/15 02:09:43;;;;;;;7.18;5.35;;;16.40;92.10;;;;;;4953708;29;20090;-68
2021/09/15 02:12:08;;;;;;;8.25;4.95;;;16.40;91.80;;;;;;4949784;28;20018;-68
2021/09/15 02:14:34;;;;;;;8.57;5.28;;;16.40;92.20;;;;;;4960204;28;20378;-68
2021/09/15 02:17:00;;;;;;;8.77;5.10;;;16.40;92.60;;;;;;4949675;28;20034;-67
2021/09/15 02:19:25;;;;;;;9.38;5.03;;;16.40;92.30;;;;;;4951750;28;20042;-68
2021/09/15 02:21:51;;;;;;;5.70;4.45;;;16.30;92.20;;;;;;4966081;28;20052;-67
2021/09/15 02:24:17;;;;;;;6.20;4.45;;;16.30;92.00;;;;;;4952069;28;20078;-68
2021/09/15 02:26:43;;;;;;;4.35;3.42;;;16.30;91.90;;;;;;4950063;28;20042;-68
2021/09/15 02:29:09;;;;;;;6.18;3.17;;;16.20;91.60;;;;;;4950619;28;20031;-68
2021/09/15 02:31:34;;;;;;;4.75;3.60;;;16.20;91.60;;;;;;4948507;28;20027;-68
2021/09/15 02:34:00;;;;;;;4.25;3.17;;;16.20;91.30;;;;;;4950373;28;20039;-68
2021/09/15 02:36:26;;;;;;;4.70;3.40;;;16.10;90.90;;;;;;4957937;28;20031;-69
2021/09/15 02:38:52;;;;;;;4.47;3.22;;;16.10;91.30;;;;;;4963590;28;20061;-67
2021/09/15 02:41:18;;;;;;;3.70;3.38;;;16.10;91.00;;;;;;4952871;28;20042;-67
2021/09/15 02:43:44;;;;;;;5.93;3.55;;;16.10;90.90;;;;;;4950903;28;20162;-67
2021/09/15 02:46:09;;;;;;;5.63;3.63;;;16.10;90.70;;;;;;4945977;28;21739;-68
2021/09/15 02:48:35;;;;;;;5.00;3.90;;;16.20;91.30;;;;;;4948021;28;20892;-68
2021/09/15 02:51:01;;;;;;;5.18;4.22;;;16.00;91.60;;;;;;4949903;28;20039;-68
2021/09/15 02:53:26;;;;;;;5.53;4.07;;;16.00;92.00;;;;;;4957065;28;20410;-67
2021/09/15 02:55:52;;;;;;;10.98;6.38;;;16.00;92.10;;;;;;4950064;28;20066;-69
2021/09/15 02:58:17;;;;;;;23.75;12.23;;;16.00;91.80;;;;;;4953512;28;20051;-68
2021/09/15 03:00:43;;;;;;;5.72;4.25;;;15.90;92.10;;;;;;4950466;28;20035;-67
2021/09/15 03:03:09;;;;;;;6.15;4.57;;;15.80;92.80;;;;;;4947891;28;20027;-67
2021/09/15 03:05:35;;;;;;;6.68;4.70;;;15.90;92.90;;;;;;4962973;28;20019;-67
2021/09/15 03:08:01;;;;;;;6.68;4.65;;;15.90;92.40;;;;;;4954873;28;20019;-68
2021/09/15 03:10:27;;;;;;;6.15;4.57;;;16.00;92.30;;;;;;4946444;28;20490;-68
2021/09/15 03:12:54;;;;;;;5.13;4.28;;;15.90;92.80;;;;;;4952928;28;20023;-68
2021/09/15 03:15:19;;;;;;;4.65;3.95;;;15.90;92.50;;;;;;4953325;28;20027;-67
2021/09/15 03:17:45;;;;;;;4.93;3.70;;;15.90;92.40;;;;;;4948274;28;20031;-70
2021/09/15 03:20:11;;;;;;;3.75;3.40;;;15.90;91.90;;;;;;4951833;28;20031;-67
2021/09/15 03:22:36;;;;;;;4.22;3.30;;;15.90;91.60;;;;;;4951112;28;20130;-68
2021/09/15 03:25:04;;;;;;;6.75;3.72;;;15.80;91.30;;;;;;4946307;28;20039;-67
2021/09/15 03:27:29;;;;;;;4.68;3.33;;;15.70;91.20;;;;;;4952137;28;20720;-67
2021/09/15 03:29:55;;;;;;;7.00;3.88;;;15.60;91.20;;;;;;4954370;28;20110;-68
2021/09/15 03:32:21;;;;;;;6.05;4.05;;;15.60;91.80;;;;;;4953454;28;20066;-67
2021/09/15 03:34:46;;;;;;;4.93;3.67;;;15.60;92.20;;;;;;4954028;28;20106;-67
2021/09/15 03:37:12;;;;;;;5.13;3.35;;;15.50;92.00;;;;;;4951384;28;20027;-68
2021/09/15 03:39:38;;;;;;;3.70;3.30;;;15.50;91.70;;;;;;4953474;28;20034;-67
2021/09/15 03:42:04;;;;;;;4.10;3.53;;;15.50;91.80;;;;;;4952745;28;20069;-67
2021/09/15 03:44:29;;;;;;;4.90;3.67;;;15.50;91.70;;;;;;4956205;28;20050;-67
2021/09/15 03:46:55;;;;;;;5.60;3.47;;;15.60;91.70;;;;;;4951039;28;20454;-67
2021/09/15 03:49:21;;;;;;;4.28;3.75;;;15.60;91.60;;;;;;4951154;28;20122;-68
2021/09/15 03:51:48;;;;;;;5.65;4.00;;;15.60;92.00;;;;;;4952230;28;20057;-68
2021/09/15 03:54:15;;;;;;;7.20;4.50;;;15.60;92.50;;;;;;4951290;28;20643;-67
2021/09/15 03:56:40;;;;;;;5.15;4.63;;;15.60;92.20;;;;;;4947194;28;20039;-67
2021/09/15 03:59:06;;;;;;;7.05;4.78;;;15.60;92.30;;;;;;4948335;28;20027;-67
2021/09/15 04:01:32;;;;;;;5.95;4.18;;;15.60;92.30;;;;;;4948570;28;20130;-68
2021/09/15 04:03:57;;;;;;;4.68;3.63;;;15.50;92.40;;;;;;4963942;28;20027;-68
2021/09/15 04:06:23;;;;;;;6.20;4.03;;;15.50;92.50;;;;;;4953152;28;20049;-68
2021/09/15 04:08:48;;;;;;;5.43;4.00;;;15.50;92.50;;;;;;4948867;28;20035;-67
2021/09/15 04:11:14;;;;;;;5.78;4.25;;;15.50;92.60;;;;;;4953777;28;20091;-68
2021/09/15 04:13:40;;;;;;;5.15;4.05;;;15.60;92.50;;;;;;4961974;28;20066;-68
2021/09/15 04:16:05;;;;;;;6.75;4.18;;;15.60;92.50;;;;;;4950405;28;20490;-68
2021/09/15 04:18:31;;;;;;;6.80;4.13;;;15.60;92.90;;;;;;4947678;28;20019;-68
2021/09/15 04:20:57;;;;;;;5.15;4.28;;;15.60;92.70;;;;;;4945437;28;20051;-68
2021/09/15 04:23:30;;;;;;;4.10;3.60;;;15.60;92.50;;;;;;4954251;28;20401;-67
2021/09/15 04:31:25;;;;;;;4.90;3.75;;;15.50;92.10;;;;;;4945741;28;20051;-68
2021/09/15 04:33:52;;;;;;;7.63;4.15;;;15.60;92.30;;;;;;4946950;28;20102;-67
2021/09/15 04:36:18;;;;;;;6.20;4.60;;;15.60;92.40;;;;;;4948321;28;20035;-68
2021/09/15 04:38:44;;;;;;;5.85;4.22;;;15.60;92.70;;;;;;4953382;28;20484;-67
2021/09/15 04:41:11;;;;;;;5.10;4.05;;;15.60;93.10;;;;;;4946183;28;20035;-67
2021/09/15 04:43:37;;;;;;;6.05;5.00;;;15.60;92.90;;;;;;4961859;28;20508;-67
2021/09/15 04:46:03;;;;;;;5.60;4.78;;;15.60;92.80;;;;;;4945601;28;20027;-68
2021/09/15 04:48:28;;;;;;;6.63;4.82;;;15.70;92.90;;;;;;4945959;28;20067;-68
2021/09/15 04:50:54;;;;;;;6.35;4.50;;;15.70;92.90;;;;;;4946664;28;20030;-67
2021/09/15 04:53:20;;;;;;;4.15;3.70;;;15.70;93.00;;;;;;4949474;28;20642;-68
2021/09/15 04:55:47;;;;;;;5.18;3.85;;;15.70;93.00;;;;;;4948174;28;20040;-67
2021/09/15 04:58:13;;;;;;;3.92;3.50;;;15.70;92.50;;;;;;4951498;28;20027;-67
2021/09/15 05:00:38;;;;;;;5.22;3.95;;;15.60;92.30;;;;;;4946639;28;20683;-68
2021/09/15 05:03:04;;;;;;;6.43;4.32;;;15.60;92.30;;;;;;4956235;28;20027;-67
2021/09/15 05:05:30;;;;;;;7.32;3.55;;;15.60;92.40;;;;;;4965982;28;20113;-68
2021/09/15 05:07:56;;;;;;;5.75;3.50;;;15.60;92.20;;;;;;4949822;28;20060;-68
2021/09/15 05:10:24;;;;;;;7.50;4.35;;;15.60;92.40;;;;;;4949957;28;20448;-68
2021/09/15 05:12:55;;;;;;;6.13;4.53;;;15.60;93.20;;;;;;4952393;28;20056;-67
2021/09/15 05:15:21;;;;;;;7.80;5.18;;;15.60;93.80;;;;;;4948847;28;20031;-68
2021/09/15 05:17:47;;;;;;;6.90;5.15;;;15.60;93.40;;;;;;4960286;28;20041;-68
2021/09/15 05:20:16;;;;;;;6.28;4.40;;;15.60;93.40;;;;;;4939908;28;20042;-67
2021/09/15 05:22:43;;;;;;;6.55;5.03;;;15.70;93.40;;;;;;4950491;28;20508;-68
2021/09/15 05:25:09;;;;;;;6.47;4.30;;;15.70;93.50;;;;;;4951183;28;20484;-68
2021/09/15 05:27:35;;;;;;;5.78;4.40;;;15.70;93.50;;;;;;4956410;28;20031;-67
2021/09/15 05:30:00;;;;;;;6.13;4.88;;;15.70;93.80;;;;;;4951968;28;20038;-68
2021/09/15 05:32:26;;;;;;;9.88;5.05;;;15.80;93.70;;;;;;4967140;28;20377;-67
2021/09/15 05:34:52;;;;;;;7.47;4.72;;;15.80;93.70;;;;;;4950952;28;20023;-68
2021/09/15 05:37:17;;;;;;;7.60;4.40;;;15.80;94.10;;;;;;4956537;28;20031;-68
2021/09/15 05:39:43;;;;;;;8.98;4.88;;;15.90;93.90;;;;;;4953931;28;20038;-67
2021/09/15 05:42:08;;;;;;;6.35;5.10;;;15.80;94.00;;;;;;4966985;28;20447;-67
2021/09/15 05:44:34;;;;;;;6.07;4.45;;;15.90;94.10;;;;;;4954496;28;20031;-68
2021/09/15 05:46:59;;;;;;;7.68;4.60;;;15.90;93.90;;;;;;4952783;28;20027;-67
2021/09/15 05:49:25;;;;;;;7.68;4.57;;;15.90;93.80;;;;;;4961505;28;20400;-68
2021/09/15 05:51:51;;;;;;;6.90;4.50;;;16.00;93.80;;;;;;4967867;28;20123;-67
2021/09/15 05:54:16;;;;;;;7.38;4.65;;;16.00;94.10;;;;;;4953704;28;20704;-67
2021/09/15 05:56:42;;;;;;;5.68;4.45;;;16.00;93.50;;;;;;4951135;28;20039;-67
2021/09/15 05:59:08;;;;;;;7.65;4.45;;;16.00;93.40;;;;;;4951427;28;20031;-68
2021/09/15 06:01:34;;;;;;;8.40;4.70;;;16.00;93.30;;;;;;4951703;28;20043;-67
2021/09/15 06:03:59;;;;;;;4.95;4.40;;;16.10;93.20;;;;;;4952845;28;20031;-68
2021/09/15 06:06:25;;;;;;;6.40;4.80;;;16.10;93.30;;;;;;4954770;28;20035;-68
2021/09/15 06:08:50;;;;;;;8.48;4.97;;;16.10;93.40;;;;;;4952071;28;20035;-67
2021/09/15 06:11:16;;;;;;;7.72;4.70;;;16.10;93.50;;;;;;4949854;28;20024;-67
2021/09/15 06:13:42;;;;;;;5.60;4.47;;;16.10;93.70;;;;;;4946295;28;20512;-67
2021/09/15 06:16:08;;;;;;;13.93;5.25;;;16.10;93.50;;;;;;4951617;28;20246;-68
2021/09/15 06:18:34;;;;;;;8.50;4.57;;;16.20;93.70;;;;;;4948038;28;20028;-68
2021/09/15 06:21:01;;;;;;;6.13;4.93;;;16.20;93.60;;;;;;4948596;28;20147;-68
2021/09/15 06:23:29;;;;;;;7.35;4.50;;;16.20;93.80;;;;;;4947039;28;20057;-68
2021/09/15 06:25:55;;;;;;;8.07;4.72;;;16.20;93.70;;;;;;4949197;28;20086;-68
2021/09/15 06:28:21;;;;;;;10.40;5.20;;;16.30;94.00;;;;;;4958433;28;20495;-68
2021/09/15 06:30:48;;;;;;;7.35;5.57;;;16.30;93.70;;;;;;4955450;28;20046;-69
2021/09/15 06:33:13;;;;;;;7.45;5.53;;;16.30;93.70;;;;;;4948758;28;20468;-68
2021/09/15 06:35:40;;;;;;;9.40;5.90;;;16.30;94.10;;;;;;4953270;28;20031;-68
2021/09/15 06:38:06;;;;;;;7.85;5.78;;;16.40;93.90;;;;;;4966276;28;20186;-68
2021/09/15 06:40:32;;;;;;;7.68;6.00;;;16.40;93.90;;;;;;4952010;28;20125;-68
2021/09/15 06:42:58;;;;;;;10.50;5.88;;;16.40;94.60;;;;;;4953311;28;20058;-68
2021/09/15 06:45:24;;;;;;;9.05;5.75;;;16.40;94.70;;;;;;4949228;28;20027;-68
2021/09/15 06:47:49;;;;;;;7.28;5.57;;;16.40;94.80;;;;;;4953211;29;20445;-68
2021/09/15 06:50:15;;;;;;;8.75;5.53;;;16.50;94.20;;;;;;4952569;28;20031;-68
2021/09/15 06:52:41;;;;;;;8.27;5.90;;;16.50;94.20;;;;;;4952716;28;20027;-68
2021/09/15 06:55:08;;;;;;;7.93;5.40;;;16.60;93.90;;;;;;4953219;28;20541;-68
2021/09/15 06:57:33;;;;;;;8.48;5.80;;;16.60;93.80;;;;;;4950023;28;20031;-69
2021/09/15 06:59:59;;;;;;;8.48;5.72;;;16.60;94.30;;;;;;4950848;29;20050;-68
2021/09/15 07:02:25;;;;;;;9.45;6.18;;;16.60;93.80;;;;;;4951275;28;20566;-68
2021/09/15 07:04:51;;;;;;;11.45;5.80;;;16.60;93.70;;;;;;4955055;28;20031;-68
2021/09/15 07:07:17;;;;;;;10.80;6.22;;;16.70;93.60;;;;;;4953073;28;20532;-68
2021/09/15 07:09:43;;;;;;;10.07;5.55;;;16.70;94.00;;;;;;4953241;28;20035;-68
2021/09/15 07:12:09;;;;;;;11.68;6.15;;;16.80;94.10;;;;;;4966644;28;20029;-68
2021/09/15 07:14:34;;;;;;;11.05;6.15;;;16.80;94.10;;;;;;4953245;28;20062;-68
2021/09/15 07:17:00;;;;;;;9.85;6.13;;;16.90;94.90;;;;;;4951953;28;20484;-70
2021/09/15 07:19:26;;;;;;;8.90;6.28;;;16.90;95.30;;;;;;4950764;28;20051;-67
2021/09/15 07:21:51;;;;;;;10.60;5.90;;;16.90;94.90;;;;;;4952037;29;20090;-68
2021/09/15 07:24:17;;;;;;;10.20;6.32;;;16.90;95.00;;;;;;4950421;29;20142;-68
2021/09/15 07:26:43;;;;;;;8.77;6.18;;;16.90;95.20;;;;;;4953362;28;20429;-67
2021/09/15 07:29:09;;;;;;;9.38;6.00;;;17.00;95.10;;;;;;4949498;28;20035;-67
2021/09/15 07:31:37;;;;;;;8.60;6.10;;;17.00;94.40;;;;;;4949689;28;20035;-68
2021/09/15 07:34:04;;;;;;;9.10;6.18;;;17.10;94.30;;;;;;4950581;28;20054;-68
2021/09/15 07:36:30;;;;;;;9.93;6.80;;;17.10;94.30;;;;;;4951772;29;20035;-69
2021/09/15 07:38:56;;;;;;;11.15;7.10;;;17.20;94.90;;;;;;4951741;28;20042;-69
2021/09/15 07:41:21;;;;;;;9.07;6.47;;;17.20;95.50;;;;;;4950237;28;20369;-69
2021/09/15 07:43:47;;;;;;;11.60;6.82;;;17.20;95.40;;;;;;4949450;29;20027;-69
2021/09/15 07:46:14;;;;;;;9.95;6.93;;;17.20;96.00;;;;;;4949114;28;20031;-69
2021/09/15 07:48:40;;;;;;;10.80;7.50;;;17.30;96.10;;;;;;4964752;28;20931;-69
2021/09/15 07:51:05;;;;;;;9.77;6.57;;;17.30;96.40;;;;;;4950339;28;20114;-69
2021/09/15 07:53:31;;;;;;;9.20;6.60;;;17.30;96.40;;;;;;4950950;28;20035;-69
2021/09/15 07:55:57;;;;;;;13.32;7.32;;;17.40;96.50;;;;;;4951271;28;20027;-69
2021/09/15 07:58:23;;;;;;;9.07;7.20;;;17.30;96.70;;;;;;4951495;28;20027;-69
2021/09/15 08:00:49;;;;;;;10.05;7.65;;;17.30;96.90;;;;;;4951087;28;20039;-68
2021/09/15 08:03:15;;;;;;;9.80;6.85;;;17.40;97.00;;;;;;4966147;28;20028;-68
2021/09/15 08:05:40;;;;;;;10.70;6.38;;;17.40;97.30;;;;;;4950738;28;20046;-69
2021/09/15 08:08:06;;;;;;;10.55;6.55;;;17.50;97.10;;;;;;4952373;29;20019;-69
2021/09/15 08:10:33;;;;;;;9.30;6.72;;;17.50;96.90;;;;;;4946966;29;20484;-69
2021/09/15 08:12:58;;;;;;;12.60;7.43;;;17.60;96.50;;;;;;4951512;28;20118;-69
2021/09/15 08:15:24;;;;;;;8.88;6.38;;;17.60;96.00;;;;;;4952536;29;20090;-69
2021/09/15 08:17:51;;;;;;;8.88;6.85;;;17.70;96.20;;;;;;4951394;28;20037;-69
2021/09/15 08:20:17;;;;;;;9.63;6.97;;;17.70;96.00;;;;;;4949784;28;20035;-69
2021/09/15 08:22:42;;;;;;;11.13;6.88;;;17.80;96.10;;;;;;4946311;28;20058;-69
2021/09/15 08:25:08;;;;;;;9.55;7.68;;;17.80;96.10;;;;;;4951212;28;20037;-69
2021/09/15 08:27:34;;;;;;;11.10;7.85;;;17.90;95.90;;;;;;4952119;28;20091;-69
2021/09/15 08:29:59;;;;;;;12.70;6.97;;;17.90;95.60;;;;;;4949512;28;20702;-68
2021/09/15 08:32:25;;;;;;;12.32;7.97;;;18.00;95.70;;;;;;4951206;28;20492;-67
2021/09/15 08:34:51;;;;;;;15.05;7.40;;;18.00;95.00;;;;;;4951065;29;20027;-68
2021/09/15 08:37:16;;;;;;;10.98;7.38;;;18.00;95.20;;;;;;4954570;28;20135;-68
2021/09/15 08:39:42;;;;;;;11.25;7.65;;;18.00;95.00;;;;;;4948912;28;20060;-68
2021/09/15 08:42:08;;;;;;;9.50;7.30;;;18.00;95.30;;;;;;4949522;28;20745;-68
2021/09/15 08:44:33;;;;;;;11.35;7.35;;;18.10;95.00;;;;;;4966096;28;20027;-68
2021/09/15 08:47:01;;;;;;;11.98;7.35;;;18.10;95.00;;;;;;4949591;28;20110;-67
2021/09/15 08:49:29;;;;;;;12.55;7.55;;;18.10;95.20;;;;;;4949054;28;20029;-71
2021/09/15 08:51:55;;;;;;;10.80;7.28;;;18.20;95.50;;;;;;4949770;28;20028;-68
2021/09/15 08:54:21;;;;;;;12.27;7.70;;;18.20;95.30;;;;;;4950334;28;20106;-67
2021/09/15 08:56:47;;;;;;;10.35;6.93;;;18.10;95.20;;;;;;4951361;28;20086;-67
2021/09/15 08:59:13;;;;;;;11.23;7.55;;;18.20;95.10;;;;;;4946619;28;20035;-68
2021/09/15 09:01:39;;;;;;;10.27;7.25;;;18.10;95.00;;;;;;4952609;28;20039;-69
2021/09/15 09:04:05;;;;;;;10.35;7.78;;;18.20;95.00;;;;;;4953872;28;20027;-68
2021/09/15 09:06:34;;;;;;;9.02;6.85;;;18.20;94.90;;;;;;4953932;28;20050;-68
2021/09/15 09:09:03;;;;;;;10.00;7.20;;;18.20;94.50;;;;;;4953785;28;20519;-68
2021/09/15 09:11:32;;;;;;;11.15;7.40;;;18.20;94.50;;;;;;4955775;28;20110;-68
2021/09/15 09:14:00;;;;;;;9.30;7.18;;;18.20;94.20;;;;;;4947662;28;20469;-68
2021/09/15 09:16:45;;;;;;;12.82;7.65;;;18.30;94.40;;;;;;4954247;28;20024;-68
2021/09/15 09:19:16;;;;;;;10.15;7.45;;;18.30;94.40;;;;;;4954934;28;20342;-68
2021/09/15 09:21:47;;;;;;;10.25;7.53;;;18.40;94.40;;;;;;4953240;28;20031;-68
2021/09/15 09:24:13;;;;;;;11.00;7.05;;;18.40;94.30;;;;;;4965255;28;20404;-68
2021/09/15 09:26:47;;;;;;;10.73;7.40;;;18.50;94.10;;;;;;4954114;28;20027;-68
2021/09/15 09:29:15;;;;;;;10.48;7.03;;;18.50;93.90;;;;;;4956923;28;20425;-68
2021/09/15 09:31:52;;;;;;;11.55;7.65;;;18.60;94.00;;;;;;4951531;28;20504;-68
2021/09/15 09:34:19;;;;;;;10.88;7.07;;;18.60;93.90;;;;;;4947161;29;20056;-68
2021/09/15 09:37:04;;;;;;;10.85;7.35;;;18.60;93.90;;;;;;4967302;28;20037;-68
2021/09/15 09:39:41;;;;;;;12.25;7.45;;;18.70;93.70;;;;;;4948357;28;20031;-67
2021/09/15 09:42:26;;;;;;;10.32;7.47;;;18.70;93.90;;;;;;4954218;28;20031;-68
2021/09/15 09:44:53;;;;;;;9.90;7.50;;;18.80;93.40;;;;;;4952466;28;20023;-68
2021/09/15 09:47:20;;;;;;;9.88;7.38;;;18.70;93.30;;;;;;4953577;28;20028;-69
2021/09/15 09:49:58;;;;;;;10.23;7.57;;;18.80;93.70;;;;;;4953452;28;20038;-68
2021/09/15 09:52:24;;;;;;;10.35;7.20;;;18.80;93.60;;;;;;4952796;29;20529;-68
2021/09/15 09:55:04;;;;;;;8.70;7.25;;;18.80;93.90;;;;;;4951538;28;20059;-68
2021/09/15 09:57:31;;;;;;;12.57;7.75;;;18.80;93.50;;;;;;4950976;28;20452;-68
2021/09/15 09:59:58;;;;;;;10.57;7.45;;;18.90;94.00;;;;;;4950684;28;20027;-68
2021/09/15 10:02:24;;;;;;;10.52;7.32;;;19.00;93.60;;;;;;4959763;28;20062;-68
2021/09/15 10:04:50;;;;;;;11.32;7.47;;;19.00;93.20;;;;;;4954173;28;20031;-68
2021/09/15 10:07:16;;;;;;;9.45;7.35;;;19.10;93.20;;;;;;4953483;28;20035;-68
2021/09/15 10:09:43;;;;;;;10.07;6.82;;;19.10;93.00;;;;;;4953601;28;20415;-68
2021/09/15 10:12:11;;;;;;;8.30;6.97;;;19.10;92.90;;;;;;4951882;28;20039;-69
2021/09/15 10:14:37;;;;;;;10.38;7.38;;;19.30;92.70;;;;;;4952815;28;20043;-68
2021/09/15 10:17:16;;;;;;;10.98;7.22;;;19.30;93.00;;;;;;4950497;28;20031;-69
2021/09/15 10:19:51;;;;;;;10.00;6.72;;;19.40;93.00;;;;;;4950190;28;20038;-68
2021/09/15 10:22:31;;;;;;;11.27;7.00;;;19.50;93.00;;;;;;4949631;28;20031;-69
2021/09/15 10:24:58;;;;;;;12.43;7.80;;;19.60;92.80;;;;;;4949948;28;20031;-69
2021/09/15 10:27:26;;;;;;;9.02;6.82;;;19.70;92.80;;;;;;4949995;28;20082;-69
2021/09/15 10:30:10;;;;;;;13.82;7.80;;;19.80;93.30;;;;;;4948728;28;20559;-69
2021/09/15 10:32:38;;;;;;;10.32;7.00;;;20.10;92.90;;;;;;4947461;28;20034;-68
2021/09/15 10:35:08;;;;;;;12.65;6.90;;;20.20;91.60;;;;;;4951409;28;20465;-69
2021/09/15 10:37:33;;;;;;;9.50;6.90;;;20.30;91.40;;;;;;4949792;28;20027;-69
2021/09/15 10:40:08;;;;;;;10.80;7.38;;;20.40;91.60;;;;;;4955224;28;20082;-69
2021/09/15 10:42:46;;;;;;;9.40;6.47;;;20.40;90.80;;;;;;4952501;28;20035;-68
2021/09/15 10:45:23;;;;;;;10.18;6.50;;;20.50;91.00;;;;;;4953009;28;20028;-69
2021/09/15 10:47:50;;;;;;;8.07;6.55;;;20.50;90.10;;;;;;4947784;28;20034;-68
2021/09/15 10:50:27;;;;;;;7.43;6.03;;;20.50;90.60;;;;;;4953603;28;20365;-68
2021/09/15 10:53:14;;;;;;;9.93;6.55;;;20.60;90.70;;;;;;4952396;28;20023;-69
2021/09/15 10:55:53;;;;;;;7.88;6.50;;;20.50;90.10;;;;;;4969070;28;20587;-68
2021/09/15 10:58:22;;;;;;;8.05;5.80;;;20.60;90.30;;;;;;4954184;28;20031;-69
2021/09/15 11:00:52;;;;;;;9.05;5.78;;;20.70;89.30;;;;;;4950729;28;20376;-69
2021/09/15 11:03:32;;;;;;;7.45;5.72;;;20.70;89.80;;;;;;4961186;28;20022;-69
2021/09/15 11:06:21;;;;;;;7.45;5.43;;;20.70;90.00;;;;;;4955469;28;20028;-69
2021/09/15 11:08:51;;;;;;;8.75;5.18;;;20.70;89.40;;;;;;4964786;28;21194;-68
2021/09/15 11:11:19;;;;;;;6.65;5.63;;;20.70;89.50;;;;;;4957495;28;20070;-69
2021/09/15 11:14:09;;;;;;;8.02;6.00;;;20.80;89.40;;;;;;4953649;28;20452;-68
2021/09/15 11:16:39;;;;;;;7.72;5.57;;;20.80;88.30;;;;;;4952836;28;20023;-68
2021/09/15 11:19:12;;;;;;;8.40;5.63;;;20.80;89.10;;;;;;4953923;28;20031;-68
2021/09/15 11:21:49;;;;;;;7.43;5.38;;;20.80;88.80;;;;;;4962822;28;20037;-68
2021/09/15 11:24:20;;;;;;;8.45;5.82;;;21.00;89.20;;;;;;4949662;28;20504;-68
2021/09/15 11:26:47;;;;;;;7.25;5.32;;;21.00;88.60;;;;;;4950628;28;20566;-68
2021/09/15 11:29:34;;;;;;;6.15;4.72;;;21.00;88.10;;;;;;4967350;28;20499;-68
2021/09/15 11:32:00;;;;;;;6.00;4.70;;;21.00;87.80;;;;;;4945023;28;20031;-68
2021/09/15 11:34:26;;;;;;;5.90;4.35;;;21.10;87.50;;;;;;4944354;29;20031;-68
2021/09/15 11:36:52;;;;;;;6.72;5.38;;;21.20;88.50;;;;;;4949520;28;20027;-68
2021/09/15 11:39:23;;;;;;;7.10;5.20;;;21.40;87.40;;;;;;4967372;28;20031;-68
2021/09/15 11:41:49;;;;;;;5.50;3.47;;;21.50;87.30;;;;;;4950541;28;20031;-68
2021/09/15 11:44:14;;;;;;;5.82;3.80;;;21.50;86.50;;;;;;4952242;28;20023;-68
2021/09/15 11:46:40;;;;;;;6.15;3.30;;;21.50;85.60;;;;;;4947939;28;20449;-68
2021/09/15 11:49:06;;;;;;;7.47;3.58;;;21.50;83.60;;;;;;4948869;28;20103;-68
2021/09/15 11:51:36;;;;;;;3.72;2.85;;;21.40;83.20;;;;;;4966914;28;20031;-68
2021/09/15 11:54:10;;;;;;;4.65;3.05;;;21.30;83.50;;;;;;4964189;28;20023;-69
2021/09/15 11:59:11;;;;;;;7.80;3.67;;;21.40;82.70;;;;;;4951196;28;20042;-68
2021/09/15 12:01:40;;;;;;;7.32;3.60;;;21.50;83.40;;;;;;4953882;28;20059;-68
2021/09/15 12:04:08;;;;;;;5.97;3.53;;;21.50;82.80;;;;;;4948222;28;20027;-68
2021/09/15 12:06:34;;;;;;;;;;;21.60;85.40;;;;;;4967903;28;20035;-68
2021/09/15 12:09:01;;;;;;;4.97;2.95;;;21.70;86.40;;;;;;4949966;28;20565;-68
2021/09/15 12:11:34;;;;;;;6.40;3.20;;;21.80;83.80;;;;;;4950246;28;20042;-69
2021/09/15 12:14:04;;;;;;;4.82;4.03;;;21.80;83.20;;;;;;4950174;28;20507;-68
2021/09/15 12:16:34;;;;;;;6.95;4.20;;;21.80;82.70;;;;;;4947529;28;20039;-68
2021/09/15 12:19:00;;;;;;;8.13;3.90;;;21.80;83.10;;;;;;4953908;28;20122;-68
2021/09/15 12:21:27;;;;;;;5.85;3.78;;;21.80;83.90;;;;;;4951091;28;20118;-68
2021/09/15 12:24:06;;;;;;;6.55;3.85;;;21.80;83.50;;;;;;4963925;28;20043;-68
2021/09/15 12:26:32;;;;;;;5.70;3.80;;;21.80;82.70;;;;;;4951819;28;20058;-68
2021/09/15 12:29:08;;;;;;;5.05;3.83;;;21.70;84.80;;;;;;4950334;28;20369;-68
2021/09/15 12:32:05;;;;;;;7.88;4.07;;;21.70;85.20;;;;;;4950801;28;20038;-68
2021/09/15 12:34:36;;;;;;;5.57;3.97;;;21.70;85.30;;;;;;4949670;28;20123;-68
2021/09/15 12:37:17;;;;;;;8.20;3.83;;;21.60;85.10;;;;;;4947217;28;20034;-67
2021/09/15 12:39:50;;;;;;;5.18;3.92;;;21.60;84.50;;;;;;4944949;28;20499;-68
2021/09/15 12:42:27;;;;;;;6.22;4.05;;;21.60;84.70;;;;;;4948057;28;20548;-68
2021/09/15 12:45:12;;;;;;;4.25;3.65;;;21.50;86.30;;;;;;4950064;28;20401;-68
2021/09/15 12:47:47;;;;;;;7.50;3.92;;;21.50;85.40;;;;;;4949563;29;20034;-68
2021/09/15 12:50:17;;;;;;;5.55;4.30;;;21.50;85.00;;;;;;4948590;28;20083;-68
2021/09/15 12:52:44;;;;;;;5.78;4.15;;;21.50;84.90;;;;;;4966855;28;20053;-68
2021/09/15 12:55:22;;;;;;;10.35;4.53;;;21.50;84.70;;;;;;4951692;28;20047;-68